Time;durP1;ratioP1;P1;durP2;ratioP2;P2;SDS_P1;SDS_P2;PMS_P1;PMS_P2;Temp;Humidity;BMP_temperature;BMP_pressure;BME280_temperature;BME280_humidity;BME280_pressure;Samples;Min_cycle;Max_cycle;Signal;HPM_P1;HPM_P2
2023/08/05 00:00:33;;;;;;;;;;;;;;;;;;5012288;28;19988;-68
2023/08/05 00:02:59;;;;;;;;;;;;;;;;;;5012733;28;20004;-66
2023/08/05 00:05:25;;;;;;;;;;;;;;;;;;5012346;28;19956;-68
2023/08/05 00:07:50;;;;;;;;;;;;;;;;;;5010578;28;20384;-68
2023/08/05 00:10:16;;;;;;;;;;;;;;;;;;5010766;28;19928;-68
2023/08/05 00:12:42;;;;;;;;;;;;;;;;;;5010616;28;20023;-68
2023/08/05 00:15:08;;;;;;;;;;;;;;;;;;5010605;28;19914;-68
2023/08/05 00:17:34;;;;;;;;;;;;;;;;;;5010519;28;19920;-68
2023/08/05 00:20:00;;;;;;;;;;;;;;;;;;5013715;28;19971;-68
2023/08/05 00:22:26;;;;;;;;;;;;;;;;;;5015622;28;19956;-68
2023/08/05 00:24:52;;;;;;;;;;;;;;;;;;5015689;28;20420;-63
2023/08/05 00:27:18;;;;;;;;;;;;;;;;;;5013209;28;20003;-63
2023/08/05 00:29:46;;;;;;;;;;;;;;;;;;5015305;28;19992;-63
2023/08/05 00:32:11;;;;;;;;;;;;;;;;;;5015616;28;19944;-63
2023/08/05 00:34:37;;;;;;;;;;;;;;;;;;5016194;28;19957;-62
2023/08/05 00:37:03;;;;;;;;;;;;;;;;;;5015710;28;19936;-63
2023/08/05 00:39:29;;;;;;;;;;;;;;;;;;5013682;28;20422;-63
2023/08/05 00:41:55;;;;;;;;;;;;;;;;;;4997856;28;19920;-62
2023/08/05 00:44:21;;;;;;;;;;;;;;;;;;5011140;28;19956;-64
2023/08/05 00:46:47;;;;;;;;;;;;;;;;;;5013828;28;20328;-62
2023/08/05 00:49:13;;;;;;;;;;;;;;;;;;5015219;28;19920;-63
2023/08/05 00:51:39;;;;;;;;;;;;;;;;;;5014467;28;19917;-64
2023/08/05 00:54:04;;;;;;;;;;;;;;;;;;5014336;28;19917;-64
2023/08/05 00:56:30;;;;;;;;;;;;;;;;;;5013635;28;19960;-63
2023/08/05 00:58:56;;;;;;;;;;;;;;;;;;4997331;28;20405;-62
2023/08/05 01:01:22;;;;;;;;;;;;;;;;;;5012374;28;19917;-62
2023/08/05 01:03:49;;;;;;;;;;;;;;;;;;4997340;28;20277;-63
2023/08/05 01:06:14;;;;;;;;;;;;;;;;;;5015071;28;19922;-63
2023/08/05 01:08:40;;;;;;;;;;;;;;;;;;5015190;28;19960;-62
2023/08/05 01:11:06;;;;;;;;;;;;;;;;;;5012522;28;20330;-63
2023/08/05 01:13:32;;;;;;;;;;;;;;;;;;5014176;28;19917;-64
2023/08/05 01:15:58;;;;;;;;;;;;;;;;;;5012632;28;19933;-63
2023/08/05 01:18:24;;;;;;;;;;;;;;;;;;5014237;28;19958;-62
2023/08/05 01:20:50;;;;;;;;;;;;;;;;;;5014024;28;20440;-64
2023/08/05 01:23:16;;;;;;;;;;;;;;;;;;5013858;28;19961;-60
2023/08/05 01:25:42;;;;;;;;;;;;;;;;;;5014190;28;19937;-63
2023/08/05 01:28:07;;;;;;;;;;;;;;;;;;5013954;28;19922;-63
2023/08/05 01:30:33;;;;;;;;;;;;;;;;;;5012180;28;19946;-62
2023/08/05 01:32:59;;;;;;;;;;;;;;;;;;5012370;28;20416;-63
2023/08/05 01:35:25;;;;;;;;;;;;;;;;;;5013523;28;20008;-74
2023/08/05 01:37:51;;;;;;;;;;;;;;;;;;5015074;28;20004;-74
2023/08/05 01:40:17;;;;;;;;;;;;;;;;;;5014300;28;20422;-74
2023/08/05 01:42:43;;;;;;;;;;;;;;;;;;5014435;28;19917;-74
2023/08/05 01:45:09;;;;;;;;;;;;;;;;;;5013912;28;19914;-75
2023/08/05 01:47:35;;;;;;;;;;;;;;;;;;5014018;28;20023;-75
2023/08/05 01:50:01;;;;;;;;;;;;;;;;;;5010767;28;20020;-75
2023/08/05 01:52:26;;;;;;;;;;;;;;;;;;5014444;28;19914;-74
2023/08/05 01:54:52;;;;;;;;;;;;;;;;;;5012061;28;20297;-74
2023/08/05 01:57:18;;;;;;;;;;;;;;;;;;5013954;28;19913;-75
2023/08/05 01:59:44;;;;;;;;;;;;;;;;;;4995656;28;19969;-74
2023/08/05 02:02:10;;;;;;;;;;;;;;;;;;5013970;28;19925;-74
2023/08/05 02:04:36;;;;;;;;;;;;;;;;;;5012576;28;19913;-74
2023/08/05 02:07:02;;;;;;;;;;;;;;;;;;5011960;28;19917;-75
2023/08/05 02:09:28;;;;;;;;;;;;;;;;;;5011460;28;19913;-75
2023/08/05 02:11:54;;;;;;;;;;;;;;;;;;5010966;28;20007;-74
2023/08/05 02:14:20;;;;;;;;;;;;;;;;;;5012935;28;20008;-75
2023/08/05 02:16:46;;;;;;;;;;;;;;;;;;5012528;28;19961;-74
2023/08/05 02:19:12;;;;;;;;;;;;;;;;;;4991397;28;20004;-74
2023/08/05 02:21:38;;;;;;;;;;;;;;;;;;4994446;28;19918;-75
2023/08/05 02:24:04;;;;;;;;;;;;;;;;;;5011711;28;20383;-75
2023/08/05 02:26:30;;;;;;;;;;;;;;;;;;4996277;28;19976;-75
2023/08/05 02:28:56;;;;;;;;;;;;;;;;;;5011770;28;19919;-75
2023/08/05 02:31:21;;;;;;;;;;;;;;;;;;5011372;28;20012;-75
2023/08/05 02:33:47;;;;;;;;;;;;;;;;;;5010493;28;20004;-75
2023/08/05 02:36:13;;;;;;;;;;;;;;;;;;4995797;28;20306;-75
2023/08/05 02:38:39;;;;;;;;;;;;;;;;;;5011410;28;19914;-75
2023/08/05 02:41:05;;;;;;;;;;;;;;;;;;5011401;28;19913;-75
2023/08/05 02:43:31;;;;;;;;;;;;;;;;;;5011957;28;19937;-75
2023/08/05 02:45:57;;;;;;;;;;;;;;;;;;5013342;28;19913;-67
2023/08/05 02:48:23;;;;;;;;;;;;;;;;;;5012260;28;19923;-67
2023/08/05 02:50:49;;;;;;;;;;;;;;;;;;5006715;28;19957;-68
2023/08/05 02:53:15;;;;;;;;;;;;;;;;;;5010513;28;20004;-67
2023/08/05 02:55:41;;;;;;;;;;;;;;;;;;5010197;28;19959;-67
2023/08/05 02:58:07;;;;;;;;;;;;;;;;;;5011927;28;20664;-67
2023/08/05 03:00:32;;;;;;;;;;;;;;;;;;5011346;28;20004;-67
2023/08/05 03:02:58;;;;;;;;;;;;;;;;;;5012290;28;19913;-67
2023/08/05 03:05:24;;;;;;;;;;;;;;;;;;5011549;28;19952;-67
2023/08/05 03:07:50;;;;;;;;;;;;;;;;;;5010711;28;20764;-67
2023/08/05 03:10:16;;;;;;;;;;;;;;;;;;5010817;28;19991;-67
2023/08/05 03:12:42;;;;;;;;;;;;;;;;;;5011759;28;20432;-67
2023/08/05 03:15:08;;;;;;;;;;;;;;;;;;5012185;28;19917;-67
2023/08/05 03:17:34;;;;;;;;;;;;;;;;;;5008433;28;20351;-66
2023/08/05 03:20:00;;;;;;;;;;;;;;;;;;5007090;28;19929;-66
2023/08/05 03:22:26;;;;;;;;;;;;;;;;;;5008560;28;19972;-67
2023/08/05 03:24:51;;;;;;;;;;;;;;;;;;5010140;28;19913;-67
2023/08/05 03:27:17;;;;;;;;;;;;;;;;;;5011126;28;19928;-66
2023/08/05 03:29:43;;;;;;;;;;;;;;;;;;5009590;28;20400;-66
2023/08/05 03:32:09;;;;;;;;;;;;;;;;;;5010691;28;19913;-66
2023/08/05 03:34:35;;;;;;;;;;;;;;;;;;4990434;28;20402;-66
2023/08/05 03:37:01;;;;;;;;;;;;;;;;;;5008613;28;19960;-66
2023/08/05 03:39:27;;;;;;;;;;;;;;;;;;5008799;28;19957;-67
2023/08/05 03:41:53;;;;;;;;;;;;;;;;;;5009569;28;20284;-66
2023/08/05 03:44:18;;;;;;;;;;;;;;;;;;5010006;28;19924;-66
2023/08/05 03:46:44;;;;;;;;;;;;;;;;;;5010749;28;19992;-66
2023/08/05 03:49:10;;;;;;;;;;;;;;;;;;5011187;28;19995;-66
2023/08/05 03:51:36;;;;;;;;;;;;;;;;;;5009367;28;19920;-66
2023/08/05 03:54:02;;;;;;;;;;;;;;;;;;5011068;28;20296;-66
2023/08/05 03:56:28;;;;;;;;;;;;;;;;;;5010782;28;19961;-75
2023/08/05 03:58:54;;;;;;;;;;;;;;;;;;5010474;28;19952;-73
2023/08/05 04:01:21;;;;;;;;;;;;;;;;;;4992600;28;19952;-75
2023/08/05 04:03:47;;;;;;;;;;;;;;;;;;5003753;28;19913;-74
2023/08/05 04:06:13;;;;;;;;;;;;;;;;;;5009729;28;19945;-75
2023/08/05 04:08:39;;;;;;;;;;;;;;;;;;5009901;28;20293;-75
2023/08/05 04:11:05;;;;;;;;;;;;;;;;;;5008428;28;19917;-74
2023/08/05 04:13:32;;;;;;;;;;;;;;;;;;5010777;28;20377;-75
2023/08/05 04:16:03;;;;;;;;;;;;;;;;;;5010136;28;19960;-74
2023/08/05 04:18:29;;;;;;;;;;;;;;;;;;5006061;28;19924;-75
2023/08/05 04:20:57;;;;;;;;;;;;;;;;;;5010114;28;19917;-74
2023/08/05 04:23:24;;;;;;;;;;;;;;;;;;5009129;28;19971;-73
2023/08/05 04:25:51;;;;;;;;;;;;;;;;;;5009717;28;19918;-75
2023/08/05 04:28:17;;;;;;;;;;;;;;;;;;5010588;28;19921;-71
2023/08/05 04:30:43;;;;;;;;;;;;;;;;;;5010505;28;19928;-75
2023/08/05 04:33:10;;;;;;;;;;;;;;;;;;5007136;28;19964;-75
2023/08/05 04:35:36;;;;;;;;;;;;;;;;;;5010249;28;19956;-75
2023/08/05 04:38:02;;;;;;;;;;;;;;;;;;5010565;28;19949;-75
2023/08/05 04:40:28;;;;;;;;;;;;;;;;;;5011070;28;20005;-75
2023/08/05 04:42:54;;;;;;;;;;;;;;;;;;5011074;28;19913;-74
2023/08/05 04:45:20;;;;;;;;;;;;;;;;;;5011103;28;19917;-74
2023/08/05 04:47:46;;;;;;;;;;;;;;;;;;5009846;28;20035;-74
2023/08/05 04:50:12;;;;;;;;;;;;;;;;;;5008094;28;19914;-75
2023/08/05 04:52:39;;;;;;;;;;;;;;;;;;4993442;28;19951;-75
2023/08/05 04:55:05;;;;;;;;;;;;;;;;;;5010833;28;19918;-74
2023/08/05 04:57:31;;;;;;;;;;;;;;;;;;5010913;28;20419;-74
2023/08/05 04:59:57;;;;;;;;;;;;;;;;;;5010567;28;19992;-74
2023/08/05 05:02:23;;;;;;;;;;;;;;;;;;4993397;28;20288;-74
2023/08/05 05:04:49;;;;;;;;;;;;;;;;;;4993785;28;19920;-74
2023/08/05 05:07:15;;;;;;;;;;;;;;;;;;4994023;28;19952;-74
2023/08/05 05:09:40;;;;;;;;;;;;;;;;;;5014093;28;19983;-74
2023/08/05 05:12:08;;;;;;;;;;;;;;;;;;5013495;28;21556;-74
2023/08/05 05:14:34;;;;;;;;;;;;;;;;;;5012279;28;19964;-74
2023/08/05 05:17:00;;;;;;;;;;;;;;;;;;5013193;28;19917;-74
2023/08/05 05:19:26;;;;;;;;;;;;;;;;;;5013348;28;19987;-74
2023/08/05 05:21:52;;;;;;;;;;;;;;;;;;5011150;28;20009;-74
2023/08/05 05:24:18;;;;;;;;;;;;;;;;;;5009593;28;19922;-75
2023/08/05 05:26:43;;;;;;;;;;;;;;;;;;5011526;28;19975;-74
2023/08/05 05:29:09;;;;;;;;;;;;;;;;;;5012297;28;19945;-74
2023/08/05 05:31:35;;;;;;;;;;;;;;;;;;5013298;28;19997;-75
2023/08/05 05:34:01;;;;;;;;;;;;;;;;;;5013115;28;20426;-74
2023/08/05 05:36:27;;;;;;;;;;;;;;;;;;5010451;28;20024;-74
2023/08/05 05:38:53;;;;;;;;;;;;;;;;;;5013921;28;19996;-73
2023/08/05 05:41:19;;;;;;;;;;;;;;;;;;5028844;28;20343;-74
2023/08/05 05:43:45;;;;;;;;;;;;;;;;;;5012053;28;20358;-75
2023/08/05 05:46:13;;;;;;;;;;;;;;;;;;5013264;28;19945;-75
2023/08/05 05:48:39;;;;;;;;;;;;;;;;;;5013448;28;20266;-74
2023/08/05 05:51:05;;;;;;;;;;;;;;;;;;5011538;28;20000;-75
2023/08/05 05:53:31;;;;;;;;;;;;;;;;;;5010236;28;19970;-74
2023/08/05 05:55:56;;;;;;;;;;;;;;;;;;5013304;28;20369;-75
2023/08/05 05:58:22;;;;;;;;;;;;;;;;;;5013243;28;19913;-75
2023/08/05 06:00:48;;;;;;;;;;;;;;;;;;5009272;28;19960;-75
2023/08/05 06:03:14;;;;;;;;;;;;;;;;;;4995097;28;19961;-75
2023/08/05 06:05:40;;;;;;;;;;;;;;;;;;5009741;28;20270;-75
2023/08/05 06:08:06;;;;;;;;;;;;;;;;;;4995294;28;19921;-75
2023/08/05 06:10:32;;;;;;;;;;;;;;;;;;5011426;28;19959;-75
2023/08/05 06:12:59;;;;;;;;;;;;;;;;;;5012278;28;20290;-74
2023/08/05 06:15:25;;;;;;;;;;;;;;;;;;4995272;28;20364;-62
2023/08/05 06:17:51;;;;;;;;;;;;;;;;;;5012303;28;19944;-61
2023/08/05 06:20:17;;;;;;;;;;;;;;;;;;5012227;28;20593;-62
2023/08/05 06:22:43;;;;;;;;;;;;;;;;;;5009198;28;19945;-62
2023/08/05 06:25:09;;;;;;;;;;;;;;;;;;5009525;28;19972;-62
2023/08/05 06:27:35;;;;;;;;;;;;;;;;;;5012397;28;19968;-63
2023/08/05 06:30:01;;;;;;;;;;;;;;;;;;5012412;28;20428;-64
2023/08/05 06:32:27;;;;;;;;;;;;;;;;;;5011734;28;19913;-65
2023/08/05 06:34:53;;;;;;;;;;;;;;;;;;5009807;28;19972;-62
2023/08/05 06:37:19;;;;;;;;;;;;;;;;;;5009468;28;19921;-62
2023/08/05 06:39:45;;;;;;;;;;;;;;;;;;4988817;28;19920;-62
2023/08/05 06:42:11;;;;;;;;;;;;;;;;;;5012388;28;19918;-62
2023/08/05 06:44:37;;;;;;;;;;;;;;;;;;5012348;28;19995;-62
2023/08/05 06:47:03;;;;;;;;;;;;;;;;;;5009053;28;19936;-66
2023/08/05 06:49:29;;;;;;;;;;;;;;;;;;5006507;28;19918;-64
2023/08/05 06:51:55;;;;;;;;;;;;;;;;;;5007664;28;20392;-62
2023/08/05 06:54:21;;;;;;;;;;;;;;;;;;5009266;28;19925;-65
2023/08/05 06:56:47;;;;;;;;;;;;;;;;;;5010872;28;19921;-62
2023/08/05 06:59:13;;;;;;;;;;;;;;;;;;5001314;28;20009;-62
2023/08/05 07:01:40;;;;;;;;;;;;;;;;;;5003293;28;19963;-63
2023/08/05 07:04:06;;;;;;;;;;;;;;;;;;4993961;28;19913;-65
2023/08/05 07:06:32;;;;;;;;;;;;;;;;;;5009073;28;19967;-63
2023/08/05 07:08:58;;;;;;;;;;;;;;;;;;5009892;28;20338;-62
2023/08/05 07:11:24;;;;;;;;;;;;;;;;;;4992492;28;19959;-67
2023/08/05 07:13:49;;;;;;;;;;;;;;;;;;5012034;28;19914;-63
2023/08/05 07:16:15;;;;;;;;;;;;;;;;;;5009727;28;20007;-63
2023/08/05 07:18:41;;;;;;;;;;;;;;;;;;5010935;28;19923;-63
2023/08/05 07:21:07;;;;;;;;;;;;;;;;;;5011063;28;19949;-62
2023/08/05 07:23:33;;;;;;;;;;;;;;;;;;5010267;28;19917;-63
2023/08/05 07:25:59;;;;;;;;;;;;;;;;;;5006701;28;19948;-63
2023/08/05 07:28:26;;;;;;;;;;;;;;;;;;5010982;28;19972;-62
2023/08/05 07:30:52;;;;;;;;;;;;;;;;;;5010906;28;20504;-63
2023/08/05 07:33:18;;;;;;;;;;;;;;;;;;5008737;28;20048;-63
2023/08/05 07:35:44;;;;;;;;;;;;;;;;;;5011219;28;19921;-63
2023/08/05 07:38:10;;;;;;;;;;;;;;;;;;4994044;28;19921;-63
2023/08/05 07:40:37;;;;;;;;;;;;;;;;;;5009429;28;19960;-64
2023/08/05 07:43:04;;;;;;;;;;;;;;;;;;5008933;28;19913;-62
2023/08/05 07:45:29;;;;;;;;;;;;;;;;;;5009053;28;19917;-63
2023/08/05 07:47:56;;;;;;;;;;;;;;;;;;5011030;28;20400;-65
2023/08/05 07:50:24;;;;;;;;;;;;;;;;;;5010587;28;19914;-64
2023/08/05 07:52:50;;;;;;;;;;;;;;;;;;5011555;28;19979;-64
2023/08/05 07:55:16;;;;;;;;;;;;;;;;;;5005576;28;19996;-64
2023/08/05 07:57:42;;;;;;;;;;;;;;;;;;5011796;28;19913;-64
2023/08/05 08:00:12;;;;;;;;;;;;;;;;;;5003668;28;19922;-63
2023/08/05 08:02:42;;;;;;;;;;;;;;;;;;4990678;28;20305;-63
2023/08/05 08:05:08;;;;;;;;;;;;;;;;;;4989963;28;20405;-63
2023/08/05 08:07:34;;;;;;;;;;;;;;;;;;5009471;28;20348;-63
2023/08/05 08:09:59;;;;;;;;;;;;;;;;;;5010956;28;20006;-64
2023/08/05 08:12:25;;;;;;;;;;;;;;;;;;5010089;28;19941;-63
2023/08/05 08:14:52;;;;;;;;;;;;;;;;;;5009894;28;19914;-63
2023/08/05 08:17:17;;;;;;;;;;;;;;;;;;5010252;28;19914;-63
2023/08/05 08:19:45;;;;;;;;;;;;;;;;;;5008777;28;19988;-66
2023/08/05 08:22:11;;;;;;;;;;;;;;;;;;4988991;28;19928;-64
2023/08/05 08:24:37;;;;;;;;;;;;;;;;;;5007821;28;20029;-63
2023/08/05 08:27:03;;;;;;;;;;;;;;;;;;5024528;28;20299;-66
2023/08/05 08:29:29;;;;;;;;;;;;;;;;;;5009245;28;20094;-63
2023/08/05 08:31:55;;;;;;;;;;;;;;;;;;5008890;28;19909;-63
2023/08/05 08:34:20;;;;;;;;;;;;;;;;;;5008107;28;19921;-74
2023/08/05 08:36:46;;;;;;;;;;;;;;;;;;5011493;28;20284;-75
2023/08/05 08:39:12;;;;;;;;;;;;;;;;;;5005412;28;19914;-75
2023/08/05 08:41:38;;;;;;;;;;;;;;;;;;5014351;28;20405;-74
2023/08/05 08:44:04;;;;;;;;;;;;;;;;;;5014344;28;19924;-72
2023/08/05 08:46:30;;;;;;;;;;;;;;;;;;5014795;28;19929;-70
2023/08/05 08:48:56;;;;;;;;;;;;;;;;;;5014866;28;20032;-70
2023/08/05 08:51:22;;;;;;;;;;;;;;;;;;4997257;28;20292;-72
2023/08/05 08:53:48;;;;;;;;;;;;;;;;;;5015186;28;19967;-72
2023/08/05 08:56:14;;;;;;;;;;;;;;;;;;5011750;28;19960;-68
2023/08/05 08:58:40;;;;;;;;;;;;;;;;;;5013536;28;19960;-66
2023/08/05 09:01:06;;;;;;;;;;;;;;;;;;5011307;28;19953;-72
2023/08/05 09:03:32;;;;;;;;;;;;;;;;;;5014085;28;20355;-72
2023/08/05 09:05:58;;;;;;;;;;;;;;;;;;5014924;28;19914;-71
2023/08/05 09:08:24;;;;;;;;;;;;;;;;;;5014776;28;19964;-72
2023/08/05 09:10:50;;;;;;;;;;;;;;;;;;4993192;28;19949;-71
2023/08/05 09:13:17;;;;;;;;;;;;;;;;;;5014629;28;19913;-72
2023/08/05 09:15:43;;;;;;;;;;;;;;;;;;5000901;28;19955;-71
2023/08/05 09:18:09;;;;;;;;;;;;;;;;;;5017804;28;20350;-72
2023/08/05 09:20:35;;;;;;;;;;;;;;;;;;5013632;28;19918;-72
2023/08/05 09:23:01;;;;;;;;;;;;;;;;;;5014336;28;19961;-72
2023/08/05 09:25:27;;;;;;;;;;;;;;;;;;5013477;28;20370;-72
2023/08/05 09:27:53;;;;;;;;;;;;;;;;;;5012646;28;19994;-72
2023/08/05 09:30:19;;;;;;;;;;;;;;;;;;5014353;28;19910;-70
2023/08/05 09:32:48;;;;;;;;;;;;;;;;;;4993811;28;19960;-72
2023/08/05 09:35:14;;;;;;;;;;;;;;;;;;4994270;28;20369;-72
2023/08/05 09:37:40;;;;;;;;;;;;;;;;;;4993288;28;19945;-72
2023/08/05 09:40:06;;;;;;;;;;;;;;;;;;5012693;28;19914;-72
2023/08/05 09:42:31;;;;;;;;;;;;;;;;;;4994799;28;19924;-72
2023/08/05 09:44:58;;;;;;;;;;;;;;;;;;5013555;28;19956;-64
2023/08/05 09:47:24;;;;;;;;;;;;;;;;;;5008372;28;20411;-64
2023/08/05 09:49:50;;;;;;;;;;;;;;;;;;5011937;28;19956;-65
2023/08/05 09:52:17;;;;;;;;;;;;;;;;;;5018745;28;19963;-64
2023/08/05 09:54:45;;;;;;;;;;;;;;;;;;5010551;28;20020;-66
2023/08/05 09:57:13;;;;;;;;;;;;;;;;;;5013618;28;20437;-64
2023/08/05 09:59:41;;;;;;;;;;;;;;;;;;5010450;28;20277;-66
2023/08/05 10:02:08;;;;;;;;;;;;;;;;;;5012062;28;19914;-65
2023/08/05 10:04:34;;;;;;;;;;;;;;;;;;5013611;28;19921;-65
2023/08/05 10:07:00;;;;;;;;;;;;;;;;;;5012939;28;19965;-65
2023/08/05 10:09:26;;;;;;;;;;;;;;;;;;5010913;28;19964;-65
2023/08/05 10:11:52;;;;;;;;;;;;;;;;;;5013221;28;19924;-63
2023/08/05 10:14:18;;;;;;;;;;;;;;;;;;5013218;28;19914;-64
2023/08/05 10:16:44;;;;;;;;;;;;;;;;;;5007100;28;20393;-66
2023/08/05 10:19:10;;;;;;;;;;;;;;;;;;5011447;28;20289;-65
2023/08/05 10:21:36;;;;;;;;;;;;;;;;;;5012995;28;19913;-65
2023/08/05 10:24:03;;;;;;;;;;;;;;;;;;5012780;28;20284;-64
2023/08/05 10:26:28;;;;;;;;;;;;;;;;;;5013585;28;19913;-65
2023/08/05 10:28:54;;;;;;;;;;;;;;;;;;5013210;28;19916;-63
2023/08/05 10:31:20;;;;;;;;;;;;;;;;;;5012810;28;19969;-64
2023/08/05 10:33:46;;;;;;;;;;;;;;;;;;5010531;28;19913;-65
2023/08/05 10:36:12;;;;;;;;;;;;;;;;;;5011535;28;20398;-65
2023/08/05 10:38:38;;;;;;;;;;;;;;;;;;5011334;28;19944;-65
2023/08/05 10:41:04;;;;;;;;;;;;;;;;;;5012684;28;20280;-63
2023/08/05 10:43:33;;;;;;;;;;;;;;;;;;5012246;28;19913;-65
2023/08/05 10:45:59;;;;;;;;;;;;;;;;;;5009686;28;20377;-65
2023/08/05 10:48:25;;;;;;;;;;;;;;;;;;5012080;28;19953;-66
2023/08/05 10:50:51;;;;;;;;;;;;;;;;;;5010538;28;20943;-65
2023/08/05 10:53:16;;;;;;;;;;;;;;;;;;5011643;28;19914;-65
2023/08/05 10:55:42;;;;;;;;;;;;;;;;;;5010272;28;20297;-65
2023/08/05 10:58:08;;;;;;;;;;;;;;;;;;5011419;28;19979;-65
2023/08/05 11:00:34;;;;;;;;;;;;;;;;;;5009050;28;19921;-65
2023/08/05 11:03:00;;;;;;;;;;;;;;;;;;5011257;28;19923;-65
2023/08/05 11:05:26;;;;;;;;;;;;;;;;;;5013040;28;20377;-73
2023/08/05 11:07:54;;;;;;;;;;;;;;;;;;5011056;28;20040;-74
2023/08/05 11:10:20;;;;;;;;;;;;;;;;;;5012220;28;19914;-73
2023/08/05 11:12:46;;;;;;;;;;;;;;;;;;4994616;28;20352;-73
2023/08/05 11:15:11;;;;;;;;;;;;;;;;;;5012864;28;19915;-63
2023/08/05 11:17:38;;;;;;;;;;;;;;;;;;5009067;28;19931;-63
2023/08/05 11:20:04;;;;;;;;;;;;;;;;;;5011671;28;19921;-63
2023/08/05 11:22:30;;;;;;;;;;;;;;;;;;5012395;28;20090;-63
2023/08/05 11:24:56;;;;;;;;;;;;;;;;;;5012659;28;20409;-63
2023/08/05 11:27:21;;;;;;;;;;;;;;;;;;5012325;28;20416;-63
2023/08/05 11:29:47;;;;;;;;;;;;;;;;;;5011801;28;20360;-63
2023/08/05 11:32:13;;;;;;;;;;;;;;;;;;5010901;28;19957;-64
2023/08/05 11:34:39;;;;;;;;;;;;;;;;;;5010559;28;19918;-63
2023/08/05 11:37:05;;;;;;;;;;;;;;;;;;5011991;28;19952;-63
2023/08/05 11:39:31;;;;;;;;;;;;;;;;;;5007843;28;20393;-63
2023/08/05 11:41:57;;;;;;;;;;;;;;;;;;5010808;28;19953;-63
2023/08/05 11:44:23;;;;;;;;;;;;;;;;;;5009923;28;19920;-63
2023/08/05 11:46:49;;;;;;;;;;;;;;;;;;5016828;28;19917;-64
2023/08/05 11:49:15;;;;;;;;;;;;;;;;;;5009982;28;19953;-65
2023/08/05 11:51:40;;;;;;;;;;;;;;;;;;5006127;28;19999;-63
2023/08/05 11:54:06;;;;;;;;;;;;;;;;;;5011320;28;19913;-63
2023/08/05 11:56:32;;;;;;;;;;;;;;;;;;5010188;28;19920;-63
2023/08/05 11:58:58;;;;;;;;;;;;;;;;;;5011729;28;19921;-62
2023/08/05 12:01:24;;;;;;;;;;;;;;;;;;5011629;28;20004;-64
2023/08/05 12:03:50;;;;;;;;;;;;;;;;;;5014125;28;20276;-62
2023/08/05 12:06:16;;;;;;;;;;;;;;;;;;5009947;28;19956;-64
2023/08/05 12:08:42;;;;;;;;;;;;;;;;;;5010607;28;20309;-64
2023/08/05 12:11:08;;;;;;;;;;;;;;;;;;5011547;28;20293;-63
2023/08/05 12:13:34;;;;;;;;;;;;;;;;;;5011175;28;20011;-63
2023/08/05 12:16:00;;;;;;;;;;;;;;;;;;5016490;28;19917;-65
2023/08/05 12:18:26;;;;;;;;;;;;;;;;;;5011359;28;19913;-66
2023/08/05 12:20:52;;;;;;;;;;;;;;;;;;5006593;28;19933;-64
2023/08/05 12:23:18;;;;;;;;;;;;;;;;;;5009758;28;19953;-64
2023/08/05 12:25:44;;;;;;;;;;;;;;;;;;5010050;28;19920;-63
2023/08/05 12:28:10;;;;;;;;;;;;;;;;;;5012402;28;19922;-62
2023/08/05 12:30:36;;;;;;;;;;;;;;;;;;5010523;28;19909;-63
2023/08/05 12:33:02;;;;;;;;;;;;;;;;;;5010342;28;19921;-66
2023/08/05 12:35:28;;;;;;;;;;;;;;;;;;5010419;28;19910;-64
2023/08/05 12:37:54;;;;;;;;;;;;;;;;;;5011007;28;20008;-64
2023/08/05 12:40:20;;;;;;;;;;;;;;;;;;5010459;28;20350;-62
2023/08/05 12:42:46;;;;;;;;;;;;;;;;;;5010656;28;19948;-63
2023/08/05 12:45:12;;;;;;;;;;;;;;;;;;5008322;28;20000;-63
2023/08/05 12:47:38;;;;;;;;;;;;;;;;;;5009996;28;19918;-62
2023/08/05 12:50:04;;;;;;;;;;;;;;;;;;5010426;28;19913;-62
2023/08/05 12:52:30;;;;;;;;;;;;;;;;;;5003203;28;19995;-62
2023/08/05 12:54:56;;;;;;;;;;;;;;;;;;5010693;28;19960;-63
2023/08/05 12:57:22;;;;;;;;;;;;;;;;;;5010479;28;20298;-62
2023/08/05 12:59:48;;;;;;;;;;;;;;;;;;5010463;28;20353;-62
2023/08/05 13:02:14;;;;;;;;;;;;;;;;;;5006877;28;20377;-64
2023/08/05 13:04:40;;;;;;;;;;;;;;;;;;5010946;28;20377;-63
2023/08/05 13:07:05;;;;;;;;;;;;;;;;;;4999748;28;19922;-64
2023/08/05 13:09:34;;;;;;;;;;;;;;;;;;5007450;28;20004;-64
2023/08/05 13:12:00;;;;;;;;;;;;;;;;;;5002419;28;19913;-62
2023/08/05 13:14:26;;;;;;;;;;;;;;;;;;5010583;28;19939;-63
2023/08/05 13:16:52;;;;;;;;;;;;;;;;;;5009284;28;20030;-62
2023/08/05 13:19:20;;;;;;;;;;;;;;;;;;5008827;28;19917;-62
2023/08/05 13:21:46;;;;;;;;;;;;;;;;;;5010451;28;19917;-62
2023/08/05 13:24:12;;;;;;;;;;;;;;;;;;5006930;28;20084;-62
2023/08/05 13:26:37;;;;;;;;;;;;;;;;;;5009015;28;19949;-69
2023/08/05 13:29:03;;;;;;;;;;;;;;;;;;5014454;28;20004;-68
2023/08/05 13:31:29;;;;;;;;;;;;;;;;;;5011274;28;19925;-68
2023/08/05 13:33:55;;;;;;;;;;;;;;;;;;5014512;28;19917;-69
2023/08/05 13:36:21;;;;;;;;;;;;;;;;;;5013947;28;19952;-72
2023/08/05 13:38:47;;;;;;;;;;;;;;;;;;5011659;28;19973;-73
2023/08/05 13:41:13;;;;;;;;;;;;;;;;;;5013179;28;19964;-73
2023/08/05 13:43:39;;;;;;;;;;;;;;;;;;5010927;28;19913;-71
2023/08/05 13:46:05;;;;;;;;;;;;;;;;;;5012581;28;19955;-73
2023/08/05 13:48:35;;;;;;;;;;;;;;;;;;5013288;28;20300;-73
2023/08/05 13:51:01;;;;;;;;;;;;;;;;;;5010416;28;20079;-73
2023/08/05 13:53:26;;;;;;;;;;;;;;;;;;5012955;28;20424;-71
2023/08/05 13:55:52;;;;;;;;;;;;;;;;;;5009600;28;20019;-72
2023/08/05 13:58:18;;;;;;;;;;;;;;;;;;5010438;28;19913;-73
2023/08/05 14:00:44;;;;;;;;;;;;;;;;;;5011981;28;19917;-75
2023/08/05 14:03:10;;;;;;;;;;;;;;;;;;5013380;28;19964;-73
2023/08/05 14:05:36;;;;;;;;;;;;;;;;;;5013815;28;20365;-73
2023/08/05 14:08:02;;;;;;;;;;;;;;;;;;5013437;28;19975;-74
2023/08/05 14:10:29;;;;;;;;;;;;;;;;;;5012476;28;19917;-74
2023/08/05 14:12:54;;;;;;;;;;;;;;;;;;5012581;28;20051;-73
2023/08/05 14:15:20;;;;;;;;;;;;;;;;;;5010616;28;19918;-73
2023/08/05 14:17:46;;;;;;;;;;;;;;;;;;4995185;28;20296;-73
2023/08/05 14:20:12;;;;;;;;;;;;;;;;;;5012801;28;19928;-73
2023/08/05 14:22:38;;;;;;;;;;;;;;;;;;5013052;28;20011;-73
2023/08/05 14:25:04;;;;;;;;;;;;;;;;;;5013440;28;19917;-74
2023/08/05 14:27:30;;;;;;;;;;;;;;;;;;4994817;28;20035;-73
2023/08/05 14:29:56;;;;;;;;;;;;;;;;;;5008615;28;20778;-71
2023/08/05 14:32:22;;;;;;;;;;;;;;;;;;5013170;28;20015;-70
2023/08/05 14:34:47;;;;;;;;;;;;;;;;;;4995311;28;19914;-71
2023/08/05 14:37:13;;;;;;;;;;;;;;;;;;5011978;28;19926;-70
2023/08/05 14:39:39;;;;;;;;;;;;;;;;;;5009385;28;19952;-68
2023/08/05 14:42:05;;;;;;;;;;;;;;;;;;5012546;28;20401;-70
2023/08/05 14:44:31;;;;;;;;;;;;;;;;;;5010166;28;19924;-61
2023/08/05 14:46:57;;;;;;;;;;;;;;;;;;5012835;28;19967;-61
2023/08/05 14:49:23;;;;;;;;;;;;;;;;;;5012600;28;19917;-61
2023/08/05 14:51:49;;;;;;;;;;;;;;;;;;5011823;28;19913;-61
2023/08/05 14:54:15;;;;;;;;;;;;;;;;;;5012732;28;19917;-62
2023/08/05 14:56:41;;;;;;;;;;;;;;;;;;5010985;28;20305;-62
2023/08/05 14:59:07;;;;;;;;;;;;;;;;;;5009732;28;19952;-64
2023/08/05 15:01:33;;;;;;;;;;;;;;;;;;4992841;28;20414;-61
2023/08/05 15:03:59;;;;;;;;;;;;;;;;;;5012261;28;19944;-61
2023/08/05 15:06:25;;;;;;;;;;;;;;;;;;5012243;28;19909;-61
2023/08/05 15:08:54;;;;;;;;;;;;;;;;;;5011292;28;19983;-61
2023/08/05 15:11:20;;;;;;;;;;;;;;;;;;5007715;28;19922;-62
2023/08/05 15:13:47;;;;;;;;;;;;;;;;;;5009619;28;19948;-61
2023/08/05 15:16:13;;;;;;;;;;;;;;;;;;5012520;28;20004;-62
2023/08/05 15:18:38;;;;;;;;;;;;;;;;;;5011729;28;20009;-63
2023/08/05 15:21:04;;;;;;;;;;;;;;;;;;5007631;28;19936;-63
2023/08/05 15:23:31;;;;;;;;;;;;;;;;;;5011802;28;19916;-64
2023/08/05 15:25:57;;;;;;;;;;;;;;;;;;5006404;28;19979;-63
2023/08/05 15:28:23;;;;;;;;;;;;;;;;;;5011330;28;19975;-63
2023/08/05 15:30:48;;;;;;;;;;;;;;;;;;5012531;28;20044;-63
2023/08/05 15:33:17;;;;;;;;;;;;;;;;;;5008632;28;20233;-64
2023/08/05 15:35:43;;;;;;;;;;;;;;;;;;4992942;28;20053;-64
2023/08/05 15:38:08;;;;;;;;;;;;;;;;;;5010973;28;20014;-65
2023/08/05 15:40:34;;;;;;;;;;;;;;;;;;5009366;28;19943;-64
2023/08/05 15:43:00;;;;;;;;;;;;;;;;;;5013029;28;19956;-64
2023/08/05 15:45:26;;;;;;;;;;;;;;;;;;5013869;28;19965;-64
2023/08/05 15:47:52;;;;;;;;;;;;;;;;;;5009290;28;19960;-64
2023/08/05 15:50:18;;;;;;;;;;;;;;;;;;5005119;28;20346;-64
2023/08/05 15:52:44;;;;;;;;;;;;;;;;;;5009369;28;19920;-64
2023/08/05 15:55:10;;;;;;;;;;;;;;;;;;5017158;28;20356;-69
2023/08/05 15:57:36;;;;;;;;;;;;;;;;;;5009154;28;20018;-69
2023/08/05 16:00:02;;;;;;;;;;;;;;;;;;5019152;28;19917;-69
2023/08/05 16:02:28;;;;;;;;;;;;;;;;;;4993413;28;20053;-69
2023/08/05 16:04:54;;;;;;;;;;;;;;;;;;4993786;28;20020;-69
2023/08/05 16:07:20;;;;;;;;;;;;;;;;;;5010539;28;19917;-68
2023/08/05 16:09:46;;;;;;;;;;;;;;;;;;5010730;28;19953;-69
2023/08/05 16:12:12;;;;;;;;;;;;;;;;;;5007985;28;19949;-69
2023/08/05 16:14:37;;;;;;;;;;;;;;;;;;5012238;28;19960;-69
2023/08/05 16:17:03;;;;;;;;;;;;;;;;;;5012085;28;19913;-69
2023/08/05 16:19:29;;;;;;;;;;;;;;;;;;5010311;28;19925;-68
2023/08/05 16:21:55;;;;;;;;;;;;;;;;;;5011068;28;20008;-68
2023/08/05 16:24:21;;;;;;;;;;;;;;;;;;5009406;28;19925;-69
2023/08/05 16:26:48;;;;;;;;;;;;;;;;;;5009895;28;20444;-68
2023/08/05 16:29:13;;;;;;;;;;;;;;;;;;5008813;28;19921;-68
2023/08/05 16:31:39;;;;;;;;;;;;;;;;;;5010596;28;19918;-68
2023/08/05 16:34:05;;;;;;;;;;;;;;;;;;5010668;28;19957;-67
2023/08/05 16:36:31;;;;;;;;;;;;;;;;;;5005680;28;19917;-69